createdAt,value
2017-09-20T00:01:11.398Z,98.20
2017-09-20T00:03:39.764Z,96.00
2017-09-20T00:06:08.119Z,94.17
2017-09-20T00:08:36.465Z,97.13
2017-09-20T00:11:04.839Z,96.47
2017-09-20T00:13:33.199Z,96.27
2017-09-20T00:16:01.583Z,88.13
2017-09-20T00:18:29.975Z,94.93
2017-09-20T00:20:58.360Z,97.00
2017-09-20T00:23:26.738Z,94.63
2017-09-20T00:25:55.118Z,89.57
2017-09-20T00:28:23.526Z,92.33
2017-09-20T00:30:51.915Z,83.43
2017-09-20T00:33:20.336Z,92.80
2017-09-20T00:35:48.692Z,86.27
2017-09-20T00:38:17.063Z,89.53
2017-09-20T00:40:45.438Z,83.63
2017-09-20T00:43:13.783Z,76.07
2017-09-20T00:45:42.147Z,79.17
2017-09-20T00:48:10.552Z,75.40
2017-09-20T00:50:38.904Z,68.80
2017-09-20T00:53:07.292Z,80.07
2017-09-20T00:55:35.640Z,79.57
2017-09-20T00:58:04.031Z,89.87
2017-09-20T01:00:32.666Z,77.67
2017-09-20T01:03:01.411Z,85.80
2017-09-20T01:05:29.789Z,84.37
2017-09-20T01:07:58.205Z,84.17
2017-09-20T01:10:26.574Z,91.27
2017-09-20T01:12:54.947Z,82.03
2017-09-20T01:15:23.391Z,76.20
2017-09-20T01:17:51.958Z,83.63
2017-09-20T01:20:32.439Z,92.33
2017-09-20T01:23:12.870Z,108.67
2017-09-20T01:25:41.215Z,92.20
2017-09-20T01:28:09.700Z,89.23
2017-09-20T01:30:38.079Z,98.23
2017-09-20T01:33:06.463Z,90.00
2017-09-20T01:35:34.879Z,91.73
2017-09-20T01:38:03.227Z,88.73
2017-09-20T01:40:31.663Z,92.97
2017-09-20T01:43:00.034Z,99.00
2017-09-20T01:45:28.382Z,89.67
2017-09-20T01:47:56.807Z,90.10
2017-09-20T01:50:25.175Z,90.30
2017-09-20T01:52:53.543Z,99.07
2017-09-20T01:55:21.927Z,107.00
2017-09-20T01:57:50.307Z,110.10
2017-09-20T02:00:18.683Z,105.77
2017-09-20T02:02:47.063Z,107.43
2017-09-20T02:05:15.431Z,113.73
2017-09-20T02:07:43.813Z,110.73
2017-09-20T02:10:12.203Z,110.30
2017-09-20T02:12:40.642Z,111.90
2017-09-20T02:15:09.000Z,106.07
2017-09-20T02:17:37.535Z,96.73
2017-09-20T02:20:05.919Z,105.80
2017-09-20T02:22:34.266Z,101.37
2017-09-20T02:25:02.651Z,131.13
2017-09-20T02:27:31.010Z,139.63
2017-09-20T02:29:59.390Z,125.17
2017-09-20T02:32:27.744Z,121.40
2017-09-20T02:34:56.110Z,120.27
2017-09-20T02:37:24.479Z,120.50
2017-09-20T02:39:52.908Z,123.77
2017-09-20T02:42:21.287Z,113.93
2017-09-20T02:44:49.631Z,126.47
2017-09-20T02:47:18.115Z,127.07
2017-09-20T02:49:46.467Z,130.23
2017-09-20T02:52:14.971Z,139.37
2017-09-20T02:54:43.404Z,135.60
2017-09-20T02:57:11.785Z,128.10
2017-09-20T02:59:40.141Z,144.90
2017-09-20T03:02:08.523Z,144.73
2017-09-20T03:04:36.875Z,121.67
2017-09-20T03:07:05.223Z,124.97
2017-09-20T03:09:33.643Z,121.50
2017-09-20T03:12:02.004Z,112.43
2017-09-20T03:14:30.426Z,114.60
2017-09-20T03:16:58.783Z,116.60
2017-09-20T03:19:27.152Z,111.53
2017-09-20T03:21:55.591Z,111.93
2017-09-20T03:24:23.987Z,113.57
2017-09-20T03:26:52.377Z,115.67
2017-09-20T03:29:20.883Z,110.07
2017-09-20T03:31:49.239Z,120.20
2017-09-20T03:34:17.582Z,105.13
2017-09-20T03:36:46.042Z,109.70
2017-09-20T03:39:14.396Z,98.23
2017-09-20T03:41:42.742Z,90.63
2017-09-20T03:44:11.115Z,90.63
2017-09-20T03:46:39.459Z,100.17
2017-09-20T03:49:07.855Z,102.17
2017-09-20T03:51:36.200Z,89.00
2017-09-20T03:54:04.572Z,87.27
2017-09-20T03:56:32.919Z,82.90
2017-09-20T03:59:01.299Z,81.60
2017-09-20T04:01:29.651Z,87.03
2017-09-20T04:03:58.057Z,82.40
2017-09-20T04:06:26.450Z,83.13
2017-09-20T04:08:54.790Z,81.50
2017-09-20T04:11:23.171Z,84.93
2017-09-20T04:13:51.529Z,82.67
2017-09-20T04:16:19.897Z,69.77
2017-09-20T04:18:48.243Z,67.23
2017-09-20T04:21:16.630Z,65.73
2017-09-20T04:23:44.971Z,67.10
2017-09-20T04:26:13.398Z,74.83
2017-09-20T04:28:41.866Z,74.83
2017-09-20T04:31:10.226Z,69.90
2017-09-20T04:33:38.572Z,73.63
2017-09-20T04:36:17.026Z,67.13
2017-09-20T04:38:45.393Z,80.37
2017-09-20T04:41:13.763Z,64.43
2017-09-20T04:43:42.132Z,67.20
2017-09-20T04:46:10.495Z,81.13
2017-09-20T04:48:38.894Z,77.90
2017-09-20T04:51:07.227Z,75.20
2017-09-20T04:53:35.575Z,81.23
2017-09-20T04:56:03.915Z,84.10
2017-09-20T04:58:32.271Z,79.37
2017-09-20T05:01:00.649Z,79.57
2017-09-20T05:03:28.995Z,76.20
2017-09-20T05:05:57.363Z,62.90
2017-09-20T05:08:25.702Z,69.97
2017-09-20T05:10:54.070Z,69.00
2017-09-20T05:13:22.411Z,85.33
2017-09-20T05:15:50.795Z,72.10
2017-09-20T05:18:19.131Z,90.10
2017-09-20T05:20:47.504Z,85.00
2017-09-20T05:23:15.847Z,77.33
2017-09-20T05:25:44.182Z,79.47
2017-09-20T05:28:12.530Z,79.70
2017-09-20T05:30:40.907Z,90.90
2017-09-20T05:33:09.250Z,78.80
2017-09-20T05:35:37.590Z,75.73
2017-09-20T05:38:05.982Z,68.27
2017-09-20T05:40:34.340Z,68.23
2017-09-20T05:43:02.915Z,74.77
2017-09-20T05:45:31.355Z,59.60
2017-09-20T05:47:59.730Z,68.27
2017-09-20T05:50:28.093Z,61.87
2017-09-20T05:52:56.604Z,54.80
2017-09-20T05:55:24.947Z,60.37
2017-09-20T05:57:53.290Z,54.67
2017-09-20T06:00:21.639Z,53.70
2017-09-20T06:02:50.110Z,38.27
2017-09-20T06:05:18.455Z,44.97
2017-09-20T06:07:46.790Z,38.83
2017-09-20T06:10:15.143Z,47.97
2017-09-20T06:12:43.482Z,44.00
2017-09-20T06:15:11.852Z,38.67
2017-09-20T06:17:40.255Z,47.57
2017-09-20T06:20:08.628Z,46.20
2017-09-20T06:22:36.979Z,60.60
2017-09-20T06:25:05.354Z,43.27
2017-09-20T06:27:33.695Z,42.90
2017-09-20T06:30:02.195Z,43.30
2017-09-20T06:32:30.530Z,33.20
2017-09-20T06:34:58.915Z,33.90
2017-09-20T06:37:27.242Z,35.70
2017-09-20T06:39:55.651Z,40.37
2017-09-20T06:42:24.142Z,33.80
2017-09-20T06:44:52.477Z,27.87
2017-09-20T06:47:20.822Z,31.30
2017-09-20T06:49:49.195Z,28.00
2017-09-20T06:52:17.577Z,26.93
2017-09-20T06:54:45.930Z,29.83
2017-09-20T06:57:14.388Z,26.87
2017-09-20T06:59:42.945Z,22.13
2017-09-20T07:02:11.295Z,24.83
2017-09-20T07:04:39.677Z,21.73
2017-09-20T07:07:08.031Z,17.47
2017-09-20T07:09:36.384Z,21.83
2017-09-20T07:12:04.728Z,15.50
2017-09-20T07:14:33.070Z,16.53
2017-09-20T07:17:01.455Z,14.53
2017-09-20T07:19:29.839Z,16.47
2017-09-20T07:21:58.203Z,15.67
2017-09-20T07:24:26.678Z,17.87
2017-09-20T07:26:55.151Z,18.33
2017-09-20T07:29:23.499Z,15.17
2017-09-20T07:31:51.843Z,17.13
2017-09-20T07:34:20.187Z,13.70
2017-09-20T07:36:48.538Z,15.57
2017-09-20T07:39:16.928Z,16.50
2017-09-20T07:41:45.275Z,16.50
2017-09-20T07:44:13.750Z,14.07
2017-09-20T07:46:42.159Z,14.50
2017-09-20T07:49:10.507Z,14.20
2017-09-20T07:51:38.911Z,16.67
2017-09-20T07:54:07.258Z,12.30
2017-09-20T07:56:35.594Z,11.43
2017-09-20T07:59:03.958Z,16.40
2017-09-20T08:01:32.307Z,17.30
2017-09-20T08:04:00.655Z,14.20
2017-09-20T08:06:28.994Z,11.37
2017-09-20T08:08:57.396Z,11.07
2017-09-20T08:11:25.749Z,14.10
2017-09-20T08:13:54.120Z,9.20
2017-09-20T08:16:22.478Z,12.73
2017-09-20T08:18:50.818Z,9.27
2017-09-20T08:21:19.183Z,9.27
2017-09-20T08:23:47.519Z,8.50
2017-09-20T08:26:15.879Z,8.30
2017-09-20T08:28:44.228Z,12.40
2017-09-20T08:31:12.604Z,7.17
2017-09-20T08:33:40.952Z,9.87
2017-09-20T08:36:09.283Z,6.17
2017-09-20T08:38:37.613Z,9.87
2017-09-20T08:41:05.985Z,9.90
2017-09-20T08:43:34.315Z,9.00
2017-09-20T08:46:02.654Z,14.17
2017-09-20T08:48:30.994Z,7.07
2017-09-20T08:50:59.370Z,6.43
2017-09-20T08:53:27.752Z,10.43
2017-09-20T08:55:56.110Z,4.90
2017-09-20T08:58:24.452Z,8.87
2017-09-20T09:00:52.786Z,6.00
2017-09-20T09:03:21.111Z,8.20
2017-09-20T09:05:49.585Z,8.00
2017-09-20T09:08:17.918Z,6.33
2017-09-20T09:10:46.255Z,5.87
2017-09-20T09:13:14.585Z,5.60
2017-09-20T09:15:42.923Z,11.13
2017-09-20T09:18:11.298Z,7.13
2017-09-20T09:20:39.690Z,7.00
2017-09-20T09:23:08.054Z,6.67
2017-09-20T09:25:36.702Z,18.93
2017-09-20T09:28:09.345Z,8.13
2017-09-20T09:30:39.025Z,7.77
2017-09-20T09:33:11.209Z,11.03
2017-09-20T09:35:44.401Z,15.40
2017-09-20T09:38:19.818Z,10.93
2017-09-20T09:40:49.696Z,9.23
2017-09-20T09:43:21.998Z,11.07
2017-09-20T09:45:53.629Z,8.50
2017-09-20T09:48:25.540Z,8.33
2017-09-20T09:50:57.919Z,6.23
2017-09-20T09:53:26.709Z,8.07
2017-09-20T09:55:56.573Z,9.53
2017-09-20T09:58:25.526Z,8.73
2017-09-20T10:00:58.673Z,6.80
2017-09-20T10:03:27.391Z,9.30
2017-09-20T10:05:59.165Z,13.53
2017-09-20T10:08:33.609Z,7.47
2017-09-20T10:11:02.983Z,7.67
2017-09-20T10:13:32.505Z,9.40
2017-09-20T10:16:03.297Z,4.87
2017-09-20T10:18:34.004Z,3.60
2017-09-20T10:21:26.235Z,3.80
2017-09-20T10:23:54.858Z,3.83
2017-09-20T10:26:29.798Z,10.60
2017-09-20T10:29:00.614Z,6.77
2017-09-20T10:31:29.585Z,7.40
2017-09-20T10:33:59.057Z,4.60
2017-09-20T10:36:31.134Z,14.43
2017-09-20T10:39:01.064Z,7.13
2017-09-20T10:41:30.077Z,4.70
2017-09-20T10:43:58.406Z,5.53
2017-09-20T10:46:26.797Z,10.50
2017-09-20T10:48:55.294Z,5.70
2017-09-20T10:51:23.634Z,8.23
2017-09-20T10:53:52.007Z,8.27
2017-09-20T10:56:20.335Z,5.10
2017-09-20T10:58:48.722Z,6.50
2017-09-20T11:01:17.066Z,6.60
2017-09-20T11:03:57.132Z,6.57
2017-09-20T11:06:32.402Z,6.73
2017-09-20T11:09:00.734Z,9.37
2017-09-20T11:11:29.078Z,7.57
2017-09-20T11:13:57.421Z,8.40
2017-09-20T11:16:25.786Z,10.53
2017-09-20T11:18:54.129Z,9.63
2017-09-20T11:21:22.482Z,10.57
2017-09-20T11:23:50.906Z,9.63
2017-09-20T11:26:19.238Z,16.00
2017-09-20T11:28:47.579Z,7.90
2017-09-20T11:31:15.911Z,9.70
2017-09-20T11:33:44.255Z,10.27
2017-09-20T11:36:12.623Z,12.90
2017-09-20T11:38:40.966Z,10.80
2017-09-20T11:41:09.310Z,16.00
2017-09-20T11:43:37.646Z,9.40
2017-09-20T11:46:05.988Z,14.60
2017-09-20T11:48:34.335Z,10.17
2017-09-20T11:51:02.695Z,9.73
2017-09-20T11:53:31.934Z,10.63
2017-09-20T11:56:00.306Z,11.67
2017-09-20T11:58:28.642Z,7.10
2017-09-20T12:00:56.982Z,13.57
2017-09-20T12:03:25.352Z,7.37
2017-09-20T12:05:53.690Z,9.57
2017-09-20T12:08:22.027Z,8.07
2017-09-20T12:10:50.380Z,6.43
2017-09-20T12:13:18.915Z,9.97
2017-09-20T12:15:47.252Z,7.30
2017-09-20T12:18:15.596Z,11.20
2017-09-20T12:20:43.930Z,9.50
2017-09-20T12:23:12.267Z,7.10
2017-09-20T12:25:40.731Z,6.00
2017-09-20T12:28:09.083Z,7.70
2017-09-20T12:30:37.783Z,12.60
2017-09-20T12:33:06.112Z,8.70
2017-09-20T12:35:34.442Z,8.83
2017-09-20T12:38:02.819Z,7.40
2017-09-20T12:40:31.151Z,8.00
2017-09-20T12:42:59.488Z,7.27
2017-09-20T12:45:27.835Z,6.90
2017-09-20T12:48:09.006Z,8.37
2017-09-20T12:50:37.479Z,4.83
2017-09-20T12:53:05.811Z,6.20
2017-09-20T12:55:34.150Z,6.00
2017-09-20T12:58:02.490Z,7.77
2017-09-20T13:00:30.855Z,7.87
2017-09-20T13:02:59.190Z,6.30
2017-09-20T13:05:27.523Z,6.23
2017-09-20T13:07:55.926Z,5.97
2017-09-20T13:10:24.292Z,6.87
2017-09-20T13:12:52.627Z,8.50
2017-09-20T13:15:20.958Z,5.80
2017-09-20T13:17:49.294Z,8.60
2017-09-20T13:20:17.633Z,11.03
2017-09-20T13:22:46.065Z,7.07
2017-09-20T13:25:14.936Z,10.50
2017-09-20T13:27:43.368Z,13.70
2017-09-20T13:30:11.732Z,9.37
2017-09-20T13:32:40.101Z,13.37
2017-09-20T13:35:08.474Z,11.40
2017-09-20T13:37:37.707Z,10.63
2017-09-20T13:40:06.084Z,11.13
2017-09-20T13:42:34.683Z,11.13
2017-09-20T13:45:03.050Z,10.43
2017-09-20T13:47:31.395Z,12.07
2017-09-20T13:49:59.747Z,10.13
2017-09-20T13:52:28.154Z,11.37
2017-09-20T13:54:56.499Z,12.50
2017-09-20T13:57:24.866Z,13.07
2017-09-20T13:59:53.213Z,11.23
2017-09-20T14:02:21.580Z,11.23
2017-09-20T14:04:49.939Z,19.47
2017-09-20T14:07:18.324Z,14.37
2017-09-20T14:09:46.667Z,12.10
2017-09-20T14:12:15.019Z,10.70
2017-09-20T14:14:43.362Z,14.77
2017-09-20T14:17:11.727Z,18.30
2017-09-20T14:19:40.062Z,14.97
2017-09-20T14:22:08.411Z,15.57
2017-09-20T14:24:36.788Z,15.63
2017-09-20T14:27:05.165Z,14.23
2017-09-20T14:29:33.534Z,14.97
2017-09-20T14:32:02.778Z,12.50
2017-09-20T14:34:31.147Z,15.80
2017-09-20T14:36:59.545Z,18.70
2017-09-20T14:39:27.883Z,19.60
2017-09-20T14:41:56.278Z,17.70
2017-09-20T14:44:24.674Z,11.80
2017-09-20T14:46:53.011Z,17.87
2017-09-20T14:49:21.366Z,14.87
2017-09-20T14:51:49.745Z,14.97
2017-09-20T14:54:18.091Z,14.10
2017-09-20T14:56:46.471Z,12.80
2017-09-20T14:59:14.819Z,15.13
2017-09-20T15:01:43.172Z,14.10
2017-09-20T15:04:11.530Z,17.10
2017-09-20T15:06:39.999Z,14.03
2017-09-20T15:09:08.348Z,16.70
2017-09-20T15:11:36.767Z,16.17
2017-09-20T15:14:05.102Z,17.27
2017-09-20T15:16:33.611Z,19.40
2017-09-20T15:19:02.051Z,17.43
2017-09-20T15:21:30.401Z,15.57
2017-09-20T15:23:58.870Z,22.67
2017-09-20T15:26:27.218Z,13.23
2017-09-20T15:28:55.598Z,15.23
2017-09-20T15:31:23.954Z,17.17
2017-09-20T15:33:52.355Z,19.77
2017-09-20T15:36:20.691Z,16.40
2017-09-20T15:38:49.039Z,17.80
2017-09-20T15:41:17.418Z,16.60
2017-09-20T15:43:46.635Z,17.73
2017-09-20T15:46:15.032Z,19.70
2017-09-20T15:48:43.382Z,21.90
2017-09-20T15:51:11.767Z,24.03
2017-09-20T15:53:40.118Z,18.43
2017-09-20T15:56:08.495Z,20.83
2017-09-20T15:58:36.848Z,19.97
2017-09-20T16:01:13.974Z,15.80
2017-09-20T16:03:42.351Z,19.80
2017-09-20T16:06:10.727Z,17.53
2017-09-20T16:08:39.083Z,20.73
2017-09-20T16:11:07.467Z,18.00
2017-09-20T16:13:54.586Z,27.17
2017-09-20T16:16:22.964Z,20.87
2017-09-20T16:18:51.317Z,18.53
2017-09-20T16:21:19.661Z,26.47
2017-09-20T16:23:48.004Z,21.13
2017-09-20T16:26:16.379Z,18.73
2017-09-20T16:28:44.789Z,18.50
2017-09-20T16:31:13.126Z,20.33
2017-09-20T16:33:41.547Z,18.93
2017-09-20T16:36:09.922Z,18.50
2017-09-20T16:38:38.318Z,21.97
2017-09-20T16:41:06.722Z,22.20
2017-09-20T16:43:35.068Z,25.50
2017-09-20T16:46:03.438Z,18.20
2017-09-20T16:48:31.785Z,20.23
2017-09-20T16:51:00.144Z,23.00
2017-09-20T16:53:28.502Z,22.73
2017-09-20T16:55:56.854Z,23.37
2017-09-20T16:58:25.199Z,23.17
2017-09-20T17:00:53.543Z,19.83
2017-09-20T17:03:22.055Z,20.77
2017-09-20T17:05:50.408Z,23.43
2017-09-20T17:08:18.755Z,24.20
2017-09-20T17:10:47.126Z,17.60
2017-09-20T17:13:15.492Z,18.43
2017-09-20T17:15:43.858Z,19.43
2017-09-20T17:18:12.242Z,19.67
2017-09-20T17:20:40.606Z,19.73
2017-09-20T17:23:08.946Z,24.10
2017-09-20T17:25:37.321Z,22.73
2017-09-20T17:28:05.667Z,28.43
2017-09-20T17:30:34.024Z,24.17
2017-09-20T17:33:02.362Z,23.20
2017-09-20T17:35:30.751Z,28.00
2017-09-20T17:37:59.110Z,30.57
2017-09-20T17:40:27.485Z,26.97
2017-09-20T17:42:55.823Z,31.70
2017-09-20T17:45:24.186Z,34.90
2017-09-20T17:47:52.560Z,28.30
2017-09-20T17:50:21.171Z,25.37
2017-09-20T17:55:23.943Z,45.03
2017-09-20T17:57:52.286Z,26.63
2017-09-20T18:00:21.731Z,30.63
2017-09-20T18:02:50.066Z,26.17
2017-09-20T18:05:18.446Z,28.20
2017-09-20T18:07:46.806Z,28.37
2017-09-20T18:10:15.153Z,27.80
2017-09-20T18:12:43.493Z,29.83
2017-09-20T18:15:11.844Z,26.77
2017-09-20T18:17:40.203Z,27.17
2017-09-20T18:20:08.553Z,24.23
2017-09-20T18:22:36.903Z,28.40
2017-09-20T18:25:05.246Z,30.87
2017-09-20T18:27:33.627Z,24.67
2017-09-20T18:30:01.976Z,33.10
2017-09-20T18:32:30.320Z,25.47
2017-09-20T18:34:58.662Z,31.50
2017-09-20T18:37:27.016Z,32.63
2017-09-20T18:39:55.354Z,31.70
2017-09-20T18:42:23.702Z,33.70
2017-09-20T18:44:52.077Z,28.90
2017-09-20T18:47:20.416Z,25.57
2017-09-20T18:49:48.797Z,27.97
2017-09-20T18:52:17.181Z,24.73
2017-09-20T18:54:45.782Z,33.23
2017-09-20T18:57:14.145Z,29.23
2017-09-20T18:59:42.484Z,25.00
2017-09-20T19:02:10.834Z,24.03
2017-09-20T19:04:39.170Z,29.10
2017-09-20T19:07:07.513Z,25.30
2017-09-20T19:09:36.070Z,26.40
2017-09-20T19:12:04.418Z,27.07
2017-09-20T19:14:32.786Z,40.43
2017-09-20T19:17:01.144Z,28.00
2017-09-20T19:19:29.527Z,29.40
2017-09-20T19:21:57.878Z,31.20
2017-09-20T19:24:26.236Z,30.90
2017-09-20T19:26:54.613Z,27.90
2017-09-20T19:29:22.951Z,29.90
2017-09-20T19:31:51.297Z,29.43
2017-09-20T19:34:19.711Z,28.70
2017-09-20T19:36:48.122Z,28.10
2017-09-20T19:39:16.475Z,24.77
2017-09-20T19:41:44.920Z,26.07
2017-09-20T19:44:13.256Z,31.13
2017-09-20T19:46:41.710Z,31.10
2017-09-20T19:49:10.056Z,23.27
2017-09-20T19:51:38.440Z,28.03
2017-09-20T19:54:06.795Z,36.00
2017-09-20T19:56:35.146Z,28.17
2017-09-20T19:59:03.525Z,27.23
2017-09-20T20:01:31.882Z,26.40
2017-09-20T20:04:01.274Z,21.07
2017-09-20T20:06:30.142Z,22.30
2017-09-20T20:08:58.527Z,25.87
2017-09-20T20:11:26.875Z,31.57
2017-09-20T20:13:55.219Z,27.07
2017-09-20T20:16:23.611Z,24.17
2017-09-20T20:18:51.968Z,30.53
2017-09-20T20:21:20.311Z,27.20
2017-09-20T20:23:48.744Z,31.47
2017-09-20T20:26:17.107Z,29.73
2017-09-20T20:28:45.455Z,28.77
2017-09-20T20:31:13.814Z,29.50
2017-09-20T20:33:42.161Z,32.10
2017-09-20T20:36:10.541Z,39.73
2017-09-20T20:38:38.890Z,26.00
2017-09-20T20:41:07.255Z,31.30
2017-09-20T20:43:35.631Z,30.00
2017-09-20T20:46:04.011Z,30.77
2017-09-20T20:48:32.362Z,35.10
2017-09-20T20:51:00.700Z,27.57
2017-09-20T20:53:29.042Z,31.50
2017-09-20T20:55:57.415Z,30.93
2017-09-20T20:58:25.773Z,29.80
2017-09-20T21:00:54.129Z,27.50
2017-09-20T21:03:22.464Z,24.07
2017-09-20T21:05:50.806Z,29.80
2017-09-20T21:08:19.174Z,33.23
2017-09-20T21:10:47.529Z,31.20
2017-09-20T21:13:15.863Z,39.60
2017-09-20T21:15:44.247Z,36.20
2017-09-20T21:18:12.602Z,32.80
2017-09-20T21:20:40.983Z,28.83
2017-09-20T21:23:09.347Z,26.20
2017-09-20T21:25:37.702Z,31.50
2017-09-20T21:28:06.104Z,27.60
2017-09-20T21:30:34.443Z,31.97
2017-09-20T21:33:03.265Z,27.33
2017-09-20T21:35:31.602Z,61.73
2017-09-20T21:37:59.942Z,28.00
2017-09-20T21:40:28.379Z,30.20
2017-09-20T21:42:56.771Z,26.73
2017-09-20T21:45:25.105Z,44.77
2017-09-20T21:47:53.551Z,31.20
2017-09-20T21:50:21.893Z,31.03
2017-09-20T21:52:50.239Z,28.50
2017-09-20T21:55:18.583Z,28.17
2017-09-20T21:57:47.018Z,33.83
2017-09-20T22:00:15.350Z,32.23
2017-09-20T22:02:43.692Z,29.33
2017-09-20T22:05:12.059Z,32.17
2017-09-20T22:07:40.400Z,30.80
2017-09-20T22:10:08.766Z,33.87
2017-09-20T22:12:37.166Z,30.47
2017-09-20T22:15:17.638Z,39.80
2017-09-20T22:18:03.895Z,32.23
2017-09-20T22:20:50.315Z,37.43
2017-09-20T22:23:36.696Z,35.50
2017-09-20T22:26:23.022Z,29.40
2017-09-20T22:28:57.369Z,33.00
2017-09-20T22:31:25.737Z,31.97
2017-09-20T22:33:54.078Z,28.67
2017-09-20T22:36:22.547Z,28.37
2017-09-20T22:38:50.883Z,31.27
2017-09-20T22:41:19.290Z,33.67
2017-09-20T22:43:47.659Z,44.13
2017-09-20T22:46:16.002Z,35.73
2017-09-20T22:48:44.344Z,30.90
2017-09-20T22:51:12.716Z,29.90
2017-09-20T22:53:41.086Z,29.83
2017-09-20T22:56:09.450Z,26.30
2017-09-20T22:58:37.832Z,25.70
2017-09-20T23:01:06.167Z,28.10
2017-09-20T23:03:34.515Z,33.60
2017-09-20T23:06:02.856Z,31.07
2017-09-20T23:08:31.216Z,26.20
2017-09-20T23:10:59.579Z,27.63
2017-09-20T23:13:27.918Z,24.90
2017-09-20T23:15:56.299Z,36.33
2017-09-20T23:18:24.647Z,31.23
2017-09-20T23:20:52.982Z,30.80
2017-09-20T23:23:21.343Z,30.33
2017-09-20T23:25:49.708Z,32.93
2017-09-20T23:28:18.215Z,31.23
2017-09-20T23:30:46.603Z,34.80
2017-09-20T23:33:14.958Z,44.17
2017-09-20T23:35:43.299Z,34.60
2017-09-20T23:38:11.644Z,33.23
2017-09-20T23:40:40.003Z,31.63
2017-09-20T23:43:08.342Z,31.30
2017-09-20T23:45:36.712Z,43.20
2017-09-20T23:48:05.059Z,32.53
2017-09-20T23:50:33.395Z,33.77
2017-09-20T23:53:01.802Z,33.03
2017-09-20T23:55:30.145Z,34.17
2017-09-20T23:57:58.547Z,34.27
